Able — 3FHH2 — position and weather

sailwx.info

Track history (hours):
 
Tides and Currents Weather Stations Pressure Air Temp Water Temp Dewpoint Dewpoint Depression Visibility Wind Speed Wind Dir Waves Ship Positions

Able

Last reported at 2017-Dec-10 00:57 UTC. Time now 2017-Dec-11 15:20 UTC.
Position N 40°59' E 028°60'.

Length 114 m; draft 7.8 m.

Type: Cargo ship. MMSI: 374712000.

Date/timePositionNaut miles runAvg speedWind from/ knotsBaromVisibWave heightAir tempDewpointWater temp
2017-Dec-10 00:57N 40°59' E 028°60'4 8.9
2017-Dec-10 00:30N 40°55' E 029°00'510.5
2017-Dec-10 00:00N 40°50' E 029°03'1 1.3
2017-Dec-09 23:30N 40°50' E 029°02'1 1.6
2017-Dec-09 22:59N 40°50' E 029°03'5 9.9
2017-Dec-09 22:30N 40°50' E 029°09'2 3.8
2017-Dec-09 21:58N 40°52' E 029°10'0 0.0
2017-Dec-09 21:28N 40°52' E 029°10'0 0.0
2017-Dec-09 20:58N 40°52' E 029°10'0 0.0
2017-Dec-09 20:22N 40°52' E 029°10'0 0.0
2017-Dec-09 19:58N 40°52' E 029°10'0 0.0
2017-Dec-09 19:28N 40°52' E 029°10'0 0.0
2017-Dec-09 18:58N 40°52' E 029°10'0 0.0
2017-Dec-09 18:16N 40°52' E 029°10'0 0.0
2017-Dec-09 17:58N 40°52' E 029°10'0 0.0
2017-Dec-09 17:28N 40°52' E 029°10'0 0.0
2017-Dec-09 16:34N 40°52' E 029°10'0 0.2
2017-Dec-09 16:28N 40°52' E 029°10'0 0.0
2017-Dec-09 15:40N 40°52' E 029°10'0 0.1
2017-Dec-09 15:28N 40°52' E 029°10'0 0.0
2017-Dec-09 14:58N 40°52' E 029°10'0 0.0
2017-Dec-09 13:28N 40°52' E 029°10'0 0.1
2017-Dec-09 12:52N 40°52' E 029°10'1 1.7
2017-Dec-09 12:30N 40°53' E 029°09'0 0.2
2017-Dec-09 11:43N 40°53' E 029°09'0 0.0
2017-Dec-09 11:19N 40°53' E 029°09'0 0.2
2017-Dec-09 10:55N 40°52' E 029°09'1 2.2
2017-Dec-09 10:30N 40°52' E 029°09'3 6.1
2017-Dec-09 10:00N 40°51' E 029°06'5 9.7
2017-Dec-09 09:29N 40°54' E 029°01'3 5.3
2017-Dec-09 09:00N 40°52' E 029°01'  
2017-Dec-04 10:01N 46°29' E 030°45'0 0.1
2017-Dec-04 09:58N 46°29' E 030°45'0 0.0
2017-Dec-04 09:28N 46°29' E 030°45'0 0.0
2017-Dec-04 08:55N 46°29' E 030°45'0 0.0
2017-Dec-04 08:11N 46°29' E 030°45'0 0.0
2017-Dec-04 08:00N 46°29' E 030°45'0 0.0
2017-Dec-04 07:18N 46°29' E 030°45'0 0.0
2017-Dec-04 07:00N 46°29' E 030°45'0 0.0
2017-Dec-04 06:18N 46°29' E 030°45'0 0.0
2017-Dec-04 05:57N 46°29' E 030°45'0 0.0
2017-Dec-04 05:24N 46°29' E 030°45'0 0.0
2017-Dec-04 05:00N 46°29' E 030°45'0 0.0
2017-Dec-04 04:06N 46°29' E 030°45'0 0.1
2017-Dec-04 04:00N 46°29' E 030°45'0 0.0
2017-Dec-04 03:21N 46°29' E 030°45'0 0.0
2017-Dec-04 02:57N 46°29' E 030°45'0 0.0
2017-Dec-04 02:30N 46°29' E 030°45'0 0.0
2017-Dec-04 02:00N 46°29' E 030°45'0 0.0
2017-Dec-04 01:21N 46°29' E 030°45'0 0.0
2017-Dec-04 00:57N 46°29' E 030°45'0 0.0
2017-Dec-04 00:30N 46°29' E 030°45'0 0.0
2017-Dec-04 00:00N 46°29' E 030°45'0 0.0
2017-Dec-03 23:30N 46°29' E 030°45'0 0.0
2017-Dec-03 23:00N 46°29' E 030°45'0 0.0
2017-Dec-03 22:21N 46°29' E 030°45'0 0.0
2017-Dec-03 22:00N 46°29' E 030°45'0 0.0
2017-Dec-03 21:27N 46°29' E 030°45'0 0.0
2017-Dec-03 21:00N 46°29' E 030°45'0 0.0
2017-Dec-03 20:30N 46°29' E 030°45'0 0.0
2017-Dec-03 19:54N 46°29' E 030°45'0 0.0
2017-Dec-03 19:27N 46°29' E 030°45'0 0.0
2017-Dec-03 18:57N 46°29' E 030°45'0 0.0
2017-Dec-03 18:27N 46°29' E 030°45'0 0.0
2017-Dec-03 17:45N 46°29' E 030°45'0 0.0
2017-Dec-03 17:27N 46°29' E 030°45'0 0.0
2017-Dec-03 17:00N 46°29' E 030°45'0 0.0
2017-Dec-03 16:27N 46°29' E 030°45'0 0.0
2017-Dec-03 15:57N 46°29' E 030°45'0 0.0
2017-Dec-03 15:30N 46°29' E 030°45'0 0.0
2017-Dec-03 15:00N 46°29' E 030°45'0 0.0
2017-Dec-03 14:30N 46°29' E 030°45'0 0.0
2017-Dec-03 14:00N 46°29' E 030°45'0 0.0
2017-Dec-03 13:27N 46°29' E 030°45'0 0.0
2017-Dec-03 13:00N 46°29' E 030°45'0 0.0
2017-Dec-03 12:30N 46°29' E 030°45'0 0.0
2017-Dec-03 12:00N 46°29' E 030°45'0 0.0
2017-Dec-03 11:09N 46°29' E 030°45'0 0.0
2017-Dec-03 11:00N 46°29' E 030°45'0 0.0
2017-Dec-03 10:30N 46°29' E 030°45'0 0.0
2017-Dec-03 10:00N 46°29' E 030°45'0 0.0
2017-Dec-03 09:30N 46°29' E 030°45'0 0.0
2017-Dec-03 09:00N 46°29' E 030°45'0 0.0
2017-Dec-03 08:27N 46°29' E 030°45'0 0.0
2017-Dec-03 07:51N 46°29' E 030°45'0 0.0
2017-Dec-03 07:27N 46°29' E 030°45'0 0.0
2017-Dec-03 06:57N 46°29' E 030°45'0 0.0
2017-Dec-03 06:24N 46°29' E 030°45'0 0.0
2017-Dec-03 05:54N 46°29' E 030°45'0 0.0
2017-Dec-03 05:30N 46°29' E 030°45'0 0.0
2017-Dec-03 04:54N 46°29' E 030°45'0 0.0
2017-Dec-03 04:24N 46°29' E 030°45'0 0.0
2017-Dec-03 04:00N 46°29' E 030°45'0 0.0
2017-Dec-03 03:30N 46°29' E 030°45'0 0.0
2017-Dec-03 03:00N 46°29' E 030°45'0 0.0
2017-Dec-03 02:27N 46°29' E 030°45'0 0.0
2017-Dec-03 02:00N 46°29' E 030°45'0 0.0
2017-Dec-03 01:24N 46°29' E 030°45'0 0.0
2017-Dec-03 01:00N 46°29' E 030°45'0 0.0
2017-Dec-03 00:24N 46°29' E 030°45'0 0.0
2017-Dec-02 23:54N 46°29' E 030°45'0 0.0
2017-Dec-02 23:30N 46°29' E 030°45'0 0.0
2017-Dec-02 23:00N 46°29' E 030°45'0 0.0
2017-Dec-02 21:57N 46°29' E 030°45'0 0.0
2017-Dec-02 21:27N 46°29' E 030°45'0 0.0
2017-Dec-02 20:54N 46°29' E 030°45'0 0.0
2017-Dec-02 20:30N 46°29' E 030°45'0 0.0
2017-Dec-02 19:45N 46°29' E 030°45'0 0.0
2017-Dec-02 19:24N 46°29' E 030°45'0 0.0
2017-Dec-02 18:57N 46°29' E 030°45'0 0.0
2017-Dec-02 18:30N 46°29' E 030°45'1 2.2
2017-Dec-02 18:01N 46°30' E 030°46'2 4.4
2017-Dec-02 17:30N 46°29' E 030°49'1 1.2
2017-Dec-02 17:00N 46°29' E 030°49'2 4.5
2017-Dec-02 16:30N 46°27' E 030°52'0 0.1
2017-Dec-02 13:58N 46°27' E 030°52'0 0.2
2017-Dec-02 13:17N 46°27' E 030°52'1 3.3
2017-Dec-02 13:00N 46°26' E 030°52'6 0.7
2017-Dec-02 05:17N 46°23' E 030°59'410.4
2017-Dec-02 04:56N 46°24' E 030°54'610.0
2017-Dec-02 04:23N 46°18' E 030°55'  
Track history (hours):
 
Tides and Currents Weather Stations Pressure Air Temp Water Temp Dewpoint Dewpoint Depression Visibility Wind Speed Wind Dir Waves Ship Positions

Able

Last reported at 2017-Dec-10 00:57 UTC. Time now 2017-Dec-11 15:20 UTC.
Position N 40°59' E 028°60'.

Length 114 m; draft 7.8 m.

Type: Cargo ship. MMSI: 374712000.

Date/timePositionNaut miles runAvg speedWind from/ knotsBaromVisibWave heightAir tempDewpointWater temp
2017-Dec-10 00:57N 40°59' E 028°60'4 8.9
2017-Dec-10 00:30N 40°55' E 029°00'510.5
2017-Dec-10 00:00N 40°50' E 029°03'1 1.3
2017-Dec-09 23:30N 40°50' E 029°02'1 1.6
2017-Dec-09 22:59N 40°50' E 029°03'5 9.9
2017-Dec-09 22:30N 40°50' E 029°09'2 3.8
2017-Dec-09 21:58N 40°52' E 029°10'0 0.0
2017-Dec-09 21:28N 40°52' E 029°10'0 0.0
2017-Dec-09 20:58N 40°52' E 029°10'0 0.0
2017-Dec-09 20:22N 40°52' E 029°10'0 0.0
2017-Dec-09 19:58N 40°52' E 029°10'0 0.0
2017-Dec-09 19:28N 40°52' E 029°10'0 0.0
2017-Dec-09 18:58N 40°52' E 029°10'0 0.0
2017-Dec-09 18:16N 40°52' E 029°10'0 0.0
2017-Dec-09 17:58N 40°52' E 029°10'0 0.0
2017-Dec-09 17:28N 40°52' E 029°10'0 0.0
2017-Dec-09 16:34N 40°52' E 029°10'0 0.2
2017-Dec-09 16:28N 40°52' E 029°10'0 0.0
2017-Dec-09 15:40N 40°52' E 029°10'0 0.1
2017-Dec-09 15:28N 40°52' E 029°10'0 0.0
2017-Dec-09 14:58N 40°52' E 029°10'0 0.0
2017-Dec-09 13:28N 40°52' E 029°10'0 0.1
2017-Dec-09 12:52N 40°52' E 029°10'1 1.7
2017-Dec-09 12:30N 40°53' E 029°09'0 0.2
2017-Dec-09 11:43N 40°53' E 029°09'0 0.0
2017-Dec-09 11:19N 40°53' E 029°09'0 0.2
2017-Dec-09 10:55N 40°52' E 029°09'1 2.2
2017-Dec-09 10:30N 40°52' E 029°09'3 6.1
2017-Dec-09 10:00N 40°51' E 029°06'5 9.7
2017-Dec-09 09:29N 40°54' E 029°01'3 5.3
2017-Dec-09 09:00N 40°52' E 029°01'  
2017-Dec-04 10:01N 46°29' E 030°45'0 0.1
2017-Dec-04 09:58N 46°29' E 030°45'0 0.0
2017-Dec-04 09:28N 46°29' E 030°45'0 0.0
2017-Dec-04 08:55N 46°29' E 030°45'0 0.0
2017-Dec-04 08:11N 46°29' E 030°45'0 0.0
2017-Dec-04 08:00N 46°29' E 030°45'0 0.0
2017-Dec-04 07:18N 46°29' E 030°45'0 0.0
2017-Dec-04 07:00N 46°29' E 030°45'0 0.0
2017-Dec-04 06:18N 46°29' E 030°45'0 0.0
2017-Dec-04 05:57N 46°29' E 030°45'0 0.0
2017-Dec-04 05:24N 46°29' E 030°45'0 0.0
2017-Dec-04 05:00N 46°29' E 030°45'0 0.0
2017-Dec-04 04:06N 46°29' E 030°45'0 0.1
2017-Dec-04 04:00N 46°29' E 030°45'0 0.0
2017-Dec-04 03:21N 46°29' E 030°45'0 0.0
2017-Dec-04 02:57N 46°29' E 030°45'0 0.0
2017-Dec-04 02:30N 46°29' E 030°45'0 0.0
2017-Dec-04 02:00N 46°29' E 030°45'0 0.0
2017-Dec-04 01:21N 46°29' E 030°45'0 0.0
2017-Dec-04 00:57N 46°29' E 030°45'0 0.0
2017-Dec-04 00:30N 46°29' E 030°45'0 0.0
2017-Dec-04 00:00N 46°29' E 030°45'0 0.0
2017-Dec-03 23:30N 46°29' E 030°45'0 0.0
2017-Dec-03 23:00N 46°29' E 030°45'0 0.0
2017-Dec-03 22:21N 46°29' E 030°45'0 0.0
2017-Dec-03 22:00N 46°29' E 030°45'0 0.0
2017-Dec-03 21:27N 46°29' E 030°45'0 0.0
2017-Dec-03 21:00N 46°29' E 030°45'0 0.0
2017-Dec-03 20:30N 46°29' E 030°45'0 0.0
2017-Dec-03 19:54N 46°29' E 030°45'0 0.0
2017-Dec-03 19:27N 46°29' E 030°45'0 0.0
2017-Dec-03 18:57N 46°29' E 030°45'0 0.0
2017-Dec-03 18:27N 46°29' E 030°45'0 0.0
2017-Dec-03 17:45N 46°29' E 030°45'0 0.0
2017-Dec-03 17:27N 46°29' E 030°45'0 0.0
2017-Dec-03 17:00N 46°29' E 030°45'0 0.0
2017-Dec-03 16:27N 46°29' E 030°45'0 0.0
2017-Dec-03 15:57N 46°29' E 030°45'0 0.0
2017-Dec-03 15:30N 46°29' E 030°45'0 0.0
2017-Dec-03 15:00N 46°29' E 030°45'0 0.0
2017-Dec-03 14:30N 46°29' E 030°45'0 0.0
2017-Dec-03 14:00N 46°29' E 030°45'0 0.0
2017-Dec-03 13:27N 46°29' E 030°45'0 0.0
2017-Dec-03 13:00N 46°29' E 030°45'0 0.0
2017-Dec-03 12:30N 46°29' E 030°45'0 0.0
2017-Dec-03 12:00N 46°29' E 030°45'0 0.0
2017-Dec-03 11:09N 46°29' E 030°45'0 0.0
2017-Dec-03 11:00N 46°29' E 030°45'0 0.0
2017-Dec-03 10:30N 46°29' E 030°45'0 0.0
2017-Dec-03 10:00N 46°29' E 030°45'0 0.0
2017-Dec-03 09:30N 46°29' E 030°45'0 0.0
2017-Dec-03 09:00N 46°29' E 030°45'0 0.0
2017-Dec-03 08:27N 46°29' E 030°45'0 0.0
2017-Dec-03 07:51N 46°29' E 030°45'0 0.0
2017-Dec-03 07:27N 46°29' E 030°45'0 0.0
2017-Dec-03 06:57N 46°29' E 030°45'0 0.0
2017-Dec-03 06:24N 46°29' E 030°45'0 0.0
2017-Dec-03 05:54N 46°29' E 030°45'0 0.0
2017-Dec-03 05:30N 46°29' E 030°45'0 0.0
2017-Dec-03 04:54N 46°29' E 030°45'0 0.0
2017-Dec-03 04:24N 46°29' E 030°45'0 0.0
2017-Dec-03 04:00N 46°29' E 030°45'0 0.0
2017-Dec-03 03:30N 46°29' E 030°45'0 0.0
2017-Dec-03 03:00N 46°29' E 030°45'0 0.0
2017-Dec-03 02:27N 46°29' E 030°45'0 0.0
2017-Dec-03 02:00N 46°29' E 030°45'0 0.0
2017-Dec-03 01:24N 46°29' E 030°45'0 0.0
2017-Dec-03 01:00N 46°29' E 030°45'0 0.0
2017-Dec-03 00:24N 46°29' E 030°45'0 0.0
2017-Dec-02 23:54N 46°29' E 030°45'0 0.0
2017-Dec-02 23:30N 46°29' E 030°45'0 0.0
2017-Dec-02 23:00N 46°29' E 030°45'0 0.0
2017-Dec-02 21:57N 46°29' E 030°45'0 0.0
2017-Dec-02 21:27N 46°29' E 030°45'0 0.0
2017-Dec-02 20:54N 46°29' E 030°45'0 0.0
2017-Dec-02 20:30N 46°29' E 030°45'0 0.0
2017-Dec-02 19:45N 46°29' E 030°45'0 0.0
2017-Dec-02 19:24N 46°29' E 030°45'0 0.0
2017-Dec-02 18:57N 46°29' E 030°45'0 0.0
2017-Dec-02 18:30N 46°29' E 030°45'1 2.2
2017-Dec-02 18:01N 46°30' E 030°46'2 4.4
2017-Dec-02 17:30N 46°29' E 030°49'1 1.2
2017-Dec-02 17:00N 46°29' E 030°49'2 4.5
2017-Dec-02 16:30N 46°27' E 030°52'0 0.1
2017-Dec-02 13:58N 46°27' E 030°52'0 0.2
2017-Dec-02 13:17N 46°27' E 030°52'1 3.3
2017-Dec-02 13:00N 46°26' E 030°52'6 0.7
2017-Dec-02 05:17N 46°23' E 030°59'410.4
2017-Dec-02 04:56N 46°24' E 030°54'610.0
2017-Dec-02 04:23N 46°18' E 030°55'  

Dump ship's entire track history